sensor_id;sensor_type;location;lat;lon;timestamp;P1;durP1;ratioP1;P2;durP2;ratioP2
44670;SDS011;48397;53.016;-2.260;2022-10-16T00:01:25;7.07;;;1.08;;
44670;SDS011;48397;53.016;-2.260;2022-10-16T00:03:54;8.45;;;1.55;;
44670;SDS011;48397;53.016;-2.260;2022-10-16T00:06:23;9.30;;;1.30;;
44670;SDS011;48397;53.016;-2.260;2022-10-16T00:08:52;7.60;;;1.45;;
44670;SDS011;48397;53.016;-2.260;2022-10-16T00:13:47;10.02;;;1.67;;
44670;SDS011;48397;53.016;-2.260;2022-10-16T00:16:16;9.65;;;1.80;;
44670;SDS011;48397;53.016;-2.260;2022-10-16T00:18:45;8.60;;;1.20;;
44670;SDS011;48397;53.016;-2.260;2022-10-16T00:24:02;8.35;;;1.75;;
44670;SDS011;48397;53.016;-2.260;2022-10-16T00:26:32;9.02;;;1.40;;
44670;SDS011;48397;53.016;-2.260;2022-10-16T00:29:00;10.73;;;1.45;;
44670;SDS011;48397;53.016;-2.260;2022-10-16T00:31:29;12.30;;;2.03;;
44670;SDS011;48397;53.016;-2.260;2022-10-16T00:33:57;12.63;;;1.40;;
44670;SDS011;48397;53.016;-2.260;2022-10-16T00:36:25;6.90;;;1.38;;
44670;SDS011;48397;53.016;-2.260;2022-10-16T00:38:54;7.82;;;1.67;;
44670;SDS011;48397;53.016;-2.260;2022-10-16T00:41:24;11.20;;;1.40;;
44670;SDS011;48397;53.016;-2.260;2022-10-16T00:46:23;7.63;;;1.38;;
44670;SDS011;48397;53.016;-2.260;2022-10-16T00:49:10;4.93;;;1.10;;
44670;SDS011;48397;53.016;-2.260;2022-10-16T00:54:19;4.80;;;0.90;;
44670;SDS011;48397;53.016;-2.260;2022-10-16T00:56:50;9.27;;;1.00;;
44670;SDS011;48397;53.016;-2.260;2022-10-16T00:59:33;8.32;;;0.68;;
44670;SDS011;48397;53.016;-2.260;2022-10-16T01:02:06;8.00;;;1.10;;
44670;SDS011;48397;53.016;-2.260;2022-10-16T01:04:36;4.28;;;0.65;;
44670;SDS011;48397;53.016;-2.260;2022-10-16T01:12:34;3.65;;;0.77;;
44670;SDS011;48397;53.016;-2.260;2022-10-16T01:20:42;9.98;;;1.20;;
44670;SDS011;48397;53.016;-2.260;2022-10-16T01:36:42;7.05;;;1.20;;
44670;SDS011;48397;53.016;-2.260;2022-10-16T01:39:24;4.13;;;1.15;;
44670;SDS011;48397;53.016;-2.260;2022-10-16T01:41:59;5.43;;;0.80;;
44670;SDS011;48397;53.016;-2.260;2022-10-16T01:44:32;7.78;;;0.70;;
44670;SDS011;48397;53.016;-2.260;2022-10-16T01:47:03;5.50;;;1.08;;
44670;SDS011;48397;53.016;-2.260;2022-10-16T01:49:34;6.38;;;1.00;;
44670;SDS011;48397;53.016;-2.260;2022-10-16T01:52:05;4.90;;;0.80;;
44670;SDS011;48397;53.016;-2.260;2022-10-16T01:54:36;6.75;;;0.77;;
44670;SDS011;48397;53.016;-2.260;2022-10-16T01:57:07;4.93;;;0.80;;
44670;SDS011;48397;53.016;-2.260;2022-10-16T01:59:43;2.65;;;0.75;;
44670;SDS011;48397;53.016;-2.260;2022-10-16T02:02:14;9.25;;;1.38;;
44670;SDS011;48397;53.016;-2.260;2022-10-16T02:04:45;4.72;;;1.30;;
44670;SDS011;48397;53.016;-2.260;2022-10-16T02:07:20;3.50;;;0.60;;
44670;SDS011;48397;53.016;-2.260;2022-10-16T02:09:47;3.22;;;0.80;;
44670;SDS011;48397;53.016;-2.260;2022-10-16T02:12:20;9.55;;;1.10;;
44670;SDS011;48397;53.016;-2.260;2022-10-16T02:14:53;6.20;;;1.25;;
44670;SDS011;48397;53.016;-2.260;2022-10-16T02:17:21;3.90;;;0.82;;
44670;SDS011;48397;53.016;-2.260;2022-10-16T02:19:51;6.80;;;0.90;;
44670;SDS011;48397;53.016;-2.260;2022-10-16T02:22:22;6.38;;;1.10;;
44670;SDS011;48397;53.016;-2.260;2022-10-16T02:30:19;9.45;;;1.30;;
44670;SDS011;48397;53.016;-2.260;2022-10-16T02:32:51;5.97;;;0.90;;
44670;SDS011;48397;53.016;-2.260;2022-10-16T02:35:21;9.88;;;1.17;;
44670;SDS011;48397;53.016;-2.260;2022-10-16T02:37:50;3.08;;;0.70;;
44670;SDS011;48397;53.016;-2.260;2022-10-16T02:40:18;5.75;;;0.82;;
44670;SDS011;48397;53.016;-2.260;2022-10-16T02:42:52;3.33;;;0.95;;
44670;SDS011;48397;53.016;-2.260;2022-10-16T02:45:21;5.90;;;1.10;;
44670;SDS011;48397;53.016;-2.260;2022-10-16T02:47:49;6.32;;;0.90;;
44670;SDS011;48397;53.016;-2.260;2022-10-16T02:50:17;7.47;;;1.30;;
44670;SDS011;48397;53.016;-2.260;2022-10-16T02:52:44;9.80;;;1.17;;
44670;SDS011;48397;53.016;-2.260;2022-10-16T02:55:12;6.07;;;0.77;;
44670;SDS011;48397;53.016;-2.260;2022-10-16T02:57:40;9.23;;;1.02;;
44670;SDS011;48397;53.016;-2.260;2022-10-16T03:00:08;6.43;;;2.13;;
44670;SDS011;48397;53.016;-2.260;2022-10-16T03:02:38;3.33;;;0.77;;
44670;SDS011;48397;53.016;-2.260;2022-10-16T03:05:06;3.95;;;1.13;;
44670;SDS011;48397;53.016;-2.260;2022-10-16T03:07:34;8.13;;;1.10;;
44670;SDS011;48397;53.016;-2.260;2022-10-16T03:10:02;7.55;;;1.30;;
44670;SDS011;48397;53.016;-2.260;2022-10-16T03:12:30;8.38;;;2.00;;
44670;SDS011;48397;53.016;-2.260;2022-10-16T03:14:58;8.80;;;1.20;;
44670;SDS011;48397;53.016;-2.260;2022-10-16T03:17:26;10.82;;;1.23;;
44670;SDS011;48397;53.016;-2.260;2022-10-16T03:22:21;8.32;;;1.15;;
44670;SDS011;48397;53.016;-2.260;2022-10-16T03:24:49;4.82;;;1.00;;
44670;SDS011;48397;53.016;-2.260;2022-10-16T03:27:16;9.93;;;1.30;;
44670;SDS011;48397;53.016;-2.260;2022-10-16T03:29:44;7.65;;;1.40;;
44670;SDS011;48397;53.016;-2.260;2022-10-16T03:32:12;11.52;;;1.38;;
44670;SDS011;48397;53.016;-2.260;2022-10-16T03:34:39;4.78;;;1.67;;
44670;SDS011;48397;53.016;-2.260;2022-10-16T03:37:07;7.70;;;1.33;;
44670;SDS011;48397;53.016;-2.260;2022-10-16T03:39:34;15.27;;;1.52;;
44670;SDS011;48397;53.016;-2.260;2022-10-16T03:42:03;4.80;;;1.02;;
44670;SDS011;48397;53.016;-2.260;2022-10-16T03:44:30;11.07;;;1.20;;
44670;SDS011;48397;53.016;-2.260;2022-10-16T03:46:58;7.03;;;1.45;;
44670;SDS011;48397;53.016;-2.260;2022-10-16T03:49:26;6.45;;;1.67;;
44670;SDS011;48397;53.016;-2.260;2022-10-16T03:51:54;7.82;;;1.23;;
44670;SDS011;48397;53.016;-2.260;2022-10-16T03:54:22;10.93;;;1.50;;
44670;SDS011;48397;53.016;-2.260;2022-10-16T03:56:49;10.10;;;1.55;;
44670;SDS011;48397;53.016;-2.260;2022-10-16T04:01:45;8.27;;;1.70;;
44670;SDS011;48397;53.016;-2.260;2022-10-16T04:04:12;6.00;;;1.15;;
44670;SDS011;48397;53.016;-2.260;2022-10-16T04:06:40;5.35;;;1.20;;
44670;SDS011;48397;53.016;-2.260;2022-10-16T04:09:07;7.20;;;1.35;;
44670;SDS011;48397;53.016;-2.260;2022-10-16T04:11:35;6.30;;;1.38;;
44670;SDS011;48397;53.016;-2.260;2022-10-16T04:14:03;4.60;;;1.15;;
44670;SDS011;48397;53.016;-2.260;2022-10-16T04:16:31;8.43;;;1.80;;
44670;SDS011;48397;53.016;-2.260;2022-10-16T04:18:58;8.82;;;1.33;;
44670;SDS011;48397;53.016;-2.260;2022-10-16T04:21:26;6.55;;;1.38;;
44670;SDS011;48397;53.016;-2.260;2022-10-16T04:23:53;6.60;;;1.23;;
44670;SDS011;48397;53.016;-2.260;2022-10-16T04:26:21;8.07;;;1.10;;
44670;SDS011;48397;53.016;-2.260;2022-10-16T04:28:49;5.95;;;1.73;;
44670;SDS011;48397;53.016;-2.260;2022-10-16T04:31:16;7.13;;;1.67;;
44670;SDS011;48397;53.016;-2.260;2022-10-16T04:33:44;4.80;;;1.05;;
44670;SDS011;48397;53.016;-2.260;2022-10-16T04:36:12;5.80;;;1.02;;
44670;SDS011;48397;53.016;-2.260;2022-10-16T04:38:40;10.70;;;1.63;;
44670;SDS011;48397;53.016;-2.260;2022-10-16T04:41:07;5.97;;;1.20;;
44670;SDS011;48397;53.016;-2.260;2022-10-16T04:43:35;8.80;;;1.40;;
44670;SDS011;48397;53.016;-2.260;2022-10-16T04:46:03;5.95;;;1.40;;
44670;SDS011;48397;53.016;-2.260;2022-10-16T04:48:31;6.45;;;1.30;;
44670;SDS011;48397;53.016;-2.260;2022-10-16T04:53:27;4.43;;;2.28;;
44670;SDS011;48397;53.016;-2.260;2022-10-16T04:55:55;8.13;;;1.33;;
44670;SDS011;48397;53.016;-2.260;2022-10-16T04:58:24;6.63;;;1.50;;
44670;SDS011;48397;53.016;-2.260;2022-10-16T05:00:51;5.72;;;1.25;;
44670;SDS011;48397;53.016;-2.260;2022-10-16T05:03:19;5.40;;;1.73;;
44670;SDS011;48397;53.016;-2.260;2022-10-16T05:05:47;6.15;;;1.50;;
44670;SDS011;48397;53.016;-2.260;2022-10-16T05:08:15;4.28;;;0.80;;
44670;SDS011;48397;53.016;-2.260;2022-10-16T05:10:43;3.33;;;1.25;;
44670;SDS011;48397;53.016;-2.260;2022-10-16T05:13:11;3.47;;;1.20;;
44670;SDS011;48397;53.016;-2.260;2022-10-16T05:15:39;3.95;;;1.08;;
44670;SDS011;48397;53.016;-2.260;2022-10-16T05:18:08;2.53;;;1.00;;
44670;SDS011;48397;53.016;-2.260;2022-10-16T05:20:36;5.65;;;1.40;;
44670;SDS011;48397;53.016;-2.260;2022-10-16T05:23:03;6.35;;;1.70;;
44670;SDS011;48397;53.016;-2.260;2022-10-16T05:25:31;7.93;;;1.33;;
44670;SDS011;48397;53.016;-2.260;2022-10-16T05:27:59;5.60;;;1.00;;
44670;SDS011;48397;53.016;-2.260;2022-10-16T05:30:26;9.60;;;1.45;;
44670;SDS011;48397;53.016;-2.260;2022-10-16T05:32:54;4.80;;;1.02;;
44670;SDS011;48397;53.016;-2.260;2022-10-16T05:35:22;5.35;;;1.25;;
44670;SDS011;48397;53.016;-2.260;2022-10-16T05:37:49;4.60;;;1.10;;
44670;SDS011;48397;53.016;-2.260;2022-10-16T05:40:17;6.43;;;1.40;;
44670;SDS011;48397;53.016;-2.260;2022-10-16T05:42:44;4.70;;;1.08;;
44670;SDS011;48397;53.016;-2.260;2022-10-16T05:45:12;4.13;;;1.25;;
44670;SDS011;48397;53.016;-2.260;2022-10-16T05:47:40;5.45;;;1.13;;
44670;SDS011;48397;53.016;-2.260;2022-10-16T05:52:35;6.75;;;1.30;;
44670;SDS011;48397;53.016;-2.260;2022-10-16T05:55:03;7.43;;;1.70;;
44670;SDS011;48397;53.016;-2.260;2022-10-16T05:59:58;6.03;;;1.35;;
44670;SDS011;48397;53.016;-2.260;2022-10-16T06:02:26;4.00;;;1.20;;
44670;SDS011;48397;53.016;-2.260;2022-10-16T06:04:53;6.53;;;1.38;;
44670;SDS011;48397;53.016;-2.260;2022-10-16T06:07:21;13.80;;;1.95;;
44670;SDS011;48397;53.016;-2.260;2022-10-16T06:09:50;6.80;;;0.90;;
44670;SDS011;48397;53.016;-2.260;2022-10-16T06:12:19;5.55;;;1.50;;
44670;SDS011;48397;53.016;-2.260;2022-10-16T06:14:47;7.43;;;1.65;;
44670;SDS011;48397;53.016;-2.260;2022-10-16T06:17:15;6.78;;;1.45;;
44670;SDS011;48397;53.016;-2.260;2022-10-16T06:19:43;5.97;;;1.30;;
44670;SDS011;48397;53.016;-2.260;2022-10-16T06:22:10;5.03;;;1.20;;
44670;SDS011;48397;53.016;-2.260;2022-10-16T06:24:38;6.43;;;1.60;;
44670;SDS011;48397;53.016;-2.260;2022-10-16T06:27:06;7.55;;;1.38;;
44670;SDS011;48397;53.016;-2.260;2022-10-16T06:29:33;6.63;;;1.30;;
44670;SDS011;48397;53.016;-2.260;2022-10-16T06:32:01;7.68;;;1.48;;
44670;SDS011;48397;53.016;-2.260;2022-10-16T06:34:29;5.63;;;1.25;;
44670;SDS011;48397;53.016;-2.260;2022-10-16T06:36:57;6.60;;;1.55;;
44670;SDS011;48397;53.016;-2.260;2022-10-16T06:39:24;7.72;;;1.85;;
44670;SDS011;48397;53.016;-2.260;2022-10-16T06:41:52;7.32;;;1.60;;
44670;SDS011;48397;53.016;-2.260;2022-10-16T06:44:20;3.47;;;1.30;;
44670;SDS011;48397;53.016;-2.260;2022-10-16T06:46:47;7.82;;;1.40;;
44670;SDS011;48397;53.016;-2.260;2022-10-16T06:49:15;7.03;;;1.88;;
44670;SDS011;48397;53.016;-2.260;2022-10-16T06:51:48;9.18;;;1.52;;
44670;SDS011;48397;53.016;-2.260;2022-10-16T06:54:16;6.82;;;1.58;;
44670;SDS011;48397;53.016;-2.260;2022-10-16T06:56:44;5.72;;;1.25;;
44670;SDS011;48397;53.016;-2.260;2022-10-16T06:59:12;6.20;;;1.20;;
44670;SDS011;48397;53.016;-2.260;2022-10-16T07:01:40;5.18;;;1.35;;
44670;SDS011;48397;53.016;-2.260;2022-10-16T07:04:07;6.15;;;1.50;;
44670;SDS011;48397;53.016;-2.260;2022-10-16T07:06:35;8.10;;;1.73;;
44670;SDS011;48397;53.016;-2.260;2022-10-16T07:09:04;8.10;;;1.40;;
44670;SDS011;48397;53.016;-2.260;2022-10-16T07:11:33;8.88;;;1.83;;
44670;SDS011;48397;53.016;-2.260;2022-10-16T07:14:01;6.72;;;1.30;;
44670;SDS011;48397;53.016;-2.260;2022-10-16T07:16:30;4.35;;;1.30;;
44670;SDS011;48397;53.016;-2.260;2022-10-16T07:18:59;3.75;;;1.30;;
44670;SDS011;48397;53.016;-2.260;2022-10-16T07:21:29;7.80;;;1.30;;
44670;SDS011;48397;53.016;-2.260;2022-10-16T07:24:02;8.35;;;1.48;;
44670;SDS011;48397;53.016;-2.260;2022-10-16T07:26:33;9.43;;;1.35;;
44670;SDS011;48397;53.016;-2.260;2022-10-16T07:29:02;8.30;;;1.35;;
44670;SDS011;48397;53.016;-2.260;2022-10-16T07:31:31;7.15;;;1.38;;
44670;SDS011;48397;53.016;-2.260;2022-10-16T07:33:59;2.90;;;1.33;;
44670;SDS011;48397;53.016;-2.260;2022-10-16T07:36:27;3.35;;;1.20;;
44670;SDS011;48397;53.016;-2.260;2022-10-16T07:38:55;6.07;;;1.73;;
44670;SDS011;48397;53.016;-2.260;2022-10-16T07:41:26;5.43;;;1.48;;
44670;SDS011;48397;53.016;-2.260;2022-10-16T07:43:55;5.65;;;1.67;;
44670;SDS011;48397;53.016;-2.260;2022-10-16T07:46:26;3.00;;;1.45;;
44670;SDS011;48397;53.016;-2.260;2022-10-16T07:48:54;10.02;;;1.55;;
44670;SDS011;48397;53.016;-2.260;2022-10-16T07:51:23;5.68;;;1.88;;
44670;SDS011;48397;53.016;-2.260;2022-10-16T07:53:52;5.53;;;1.83;;
44670;SDS011;48397;53.016;-2.260;2022-10-16T07:58:47;6.72;;;1.48;;
44670;SDS011;48397;53.016;-2.260;2022-10-16T08:01:17;11.15;;;2.35;;
44670;SDS011;48397;53.016;-2.260;2022-10-16T08:03:46;4.03;;;1.10;;
44670;SDS011;48397;53.016;-2.260;2022-10-16T08:06:16;8.18;;;1.70;;
44670;SDS011;48397;53.016;-2.260;2022-10-16T08:08:51;6.75;;;1.98;;
44670;SDS011;48397;53.016;-2.260;2022-10-16T08:11:18;9.80;;;1.25;;
44670;SDS011;48397;53.016;-2.260;2022-10-16T08:13:46;6.80;;;1.70;;
44670;SDS011;48397;53.016;-2.260;2022-10-16T08:16:14;8.07;;;1.33;;
44670;SDS011;48397;53.016;-2.260;2022-10-16T08:18:41;7.53;;;2.22;;
44670;SDS011;48397;53.016;-2.260;2022-10-16T08:21:13;7.68;;;1.38;;
44670;SDS011;48397;53.016;-2.260;2022-10-16T08:26:22;4.35;;;1.30;;
44670;SDS011;48397;53.016;-2.260;2022-10-16T08:28:50;8.40;;;1.20;;
44670;SDS011;48397;53.016;-2.260;2022-10-16T08:31:19;5.13;;;1.38;;
44670;SDS011;48397;53.016;-2.260;2022-10-16T08:33:47;6.35;;;1.30;;
44670;SDS011;48397;53.016;-2.260;2022-10-16T08:36:15;3.95;;;1.30;;
44670;SDS011;48397;53.016;-2.260;2022-10-16T08:38:43;4.97;;;1.08;;
44670;SDS011;48397;53.016;-2.260;2022-10-16T08:47:13;4.15;;;0.90;;
44670;SDS011;48397;53.016;-2.260;2022-10-16T08:49:52;5.80;;;1.10;;
44670;SDS011;48397;53.016;-2.260;2022-10-16T08:52:32;4.97;;;1.10;;
44670;SDS011;48397;53.016;-2.260;2022-10-16T08:55:03;7.22;;;1.30;;
44670;SDS011;48397;53.016;-2.260;2022-10-16T08:57:31;7.95;;;1.10;;
44670;SDS011;48397;53.016;-2.260;2022-10-16T09:02:32;8.57;;;1.40;;
44670;SDS011;48397;53.016;-2.260;2022-10-16T09:05:14;7.88;;;1.58;;
44670;SDS011;48397;53.016;-2.260;2022-10-16T09:07:57;6.90;;;1.20;;
44670;SDS011;48397;53.016;-2.260;2022-10-16T09:13:28;5.18;;;1.10;;
44670;SDS011;48397;53.016;-2.260;2022-10-16T09:18:59;4.72;;;1.13;;
44670;SDS011;48397;53.016;-2.260;2022-10-16T09:21:44;3.43;;;1.03;;
44670;SDS011;48397;53.016;-2.260;2022-10-16T09:24:17;6.43;;;1.00;;
44670;SDS011;48397;53.016;-2.260;2022-10-16T09:26:49;6.95;;;1.25;;
44670;SDS011;48397;53.016;-2.260;2022-10-16T09:29:17;5.13;;;0.88;;
44670;SDS011;48397;53.016;-2.260;2022-10-16T09:31:52;6.18;;;0.90;;
44670;SDS011;48397;53.016;-2.260;2022-10-16T09:34:27;5.35;;;2.03;;
44670;SDS011;48397;53.016;-2.260;2022-10-16T09:36:59;4.15;;;1.05;;
44670;SDS011;48397;53.016;-2.260;2022-10-16T09:39:30;4.18;;;1.10;;
44670;SDS011;48397;53.016;-2.260;2022-10-16T09:42:18;6.80;;;1.10;;
44670;SDS011;48397;53.016;-2.260;2022-10-16T09:44:49;9.07;;;1.05;;
44670;SDS011;48397;53.016;-2.260;2022-10-16T09:47:25;5.22;;;1.02;;
44670;SDS011;48397;53.016;-2.260;2022-10-16T09:49:59;9.02;;;1.77;;
44670;SDS011;48397;53.016;-2.260;2022-10-16T09:52:31;7.60;;;1.00;;
44670;SDS011;48397;53.016;-2.260;2022-10-16T09:55:00;5.05;;;1.05;;
44670;SDS011;48397;53.016;-2.260;2022-10-16T09:57:30;4.88;;;0.85;;
44670;SDS011;48397;53.016;-2.260;2022-10-16T09:59:58;6.25;;;1.15;;
44670;SDS011;48397;53.016;-2.260;2022-10-16T10:04:53;3.40;;;1.10;;
44670;SDS011;48397;53.016;-2.260;2022-10-16T10:07:26;4.43;;;1.02;;
44670;SDS011;48397;53.016;-2.260;2022-10-16T10:09:56;2.97;;;0.73;;
44670;SDS011;48397;53.016;-2.260;2022-10-16T10:12:28;4.93;;;0.95;;
44670;SDS011;48397;53.016;-2.260;2022-10-16T10:15:09;5.85;;;0.80;;
44670;SDS011;48397;53.016;-2.260;2022-10-16T10:17:46;4.40;;;1.50;;
44670;SDS011;48397;53.016;-2.260;2022-10-16T10:20:26;7.05;;;0.90;;
44670;SDS011;48397;53.016;-2.260;2022-10-16T10:23:22;7.70;;;0.90;;
44670;SDS011;48397;53.016;-2.260;2022-10-16T10:44:43;3.42;;;0.63;;
44670;SDS011;48397;53.016;-2.260;2022-10-16T10:47:29;4.15;;;0.70;;
44670;SDS011;48397;53.016;-2.260;2022-10-16T10:50:32;2.83;;;0.65;;
44670;SDS011;48397;53.016;-2.260;2022-10-16T10:56:35;1.98;;;0.55;;
44670;SDS011;48397;53.016;-2.260;2022-10-16T11:07:36;6.60;;;0.95;;
44670;SDS011;48397;53.016;-2.260;2022-10-16T11:10:18;6.07;;;1.00;;
44670;SDS011;48397;53.016;-2.260;2022-10-16T11:13:05;3.85;;;1.10;;
44670;SDS011;48397;53.016;-2.260;2022-10-16T11:16:00;2.83;;;0.63;;
44670;SDS011;48397;53.016;-2.260;2022-10-16T11:21:17;3.88;;;0.93;;
44670;SDS011;48397;53.016;-2.260;2022-10-16T11:23:58;3.65;;;0.85;;
44670;SDS011;48397;53.016;-2.260;2022-10-16T11:26:43;4.95;;;0.95;;
44670;SDS011;48397;53.016;-2.260;2022-10-16T11:29:16;3.33;;;0.70;;
44670;SDS011;48397;53.016;-2.260;2022-10-16T11:31:50;3.70;;;1.67;;
44670;SDS011;48397;53.016;-2.260;2022-10-16T11:34:22;2.55;;;0.75;;
44670;SDS011;48397;53.016;-2.260;2022-10-16T11:42:54;5.35;;;0.63;;
44670;SDS011;48397;53.016;-2.260;2022-10-16T11:45:46;2.38;;;0.63;;
44670;SDS011;48397;53.016;-2.260;2022-10-16T11:48:31;5.05;;;1.02;;
44670;SDS011;48397;53.016;-2.260;2022-10-16T11:51:51;5.57;;;0.70;;
44670;SDS011;48397;53.016;-2.260;2022-10-16T11:54:13;3.10;;;0.63;;
44670;SDS011;48397;53.016;-2.260;2022-10-16T11:56:59;4.80;;;1.05;;
44670;SDS011;48397;53.016;-2.260;2022-10-16T11:59:44;3.25;;;1.25;;
44670;SDS011;48397;53.016;-2.260;2022-10-16T12:07:43;6.38;;;1.40;;
44670;SDS011;48397;53.016;-2.260;2022-10-16T12:10:28;6.13;;;1.08;;
44670;SDS011;48397;53.016;-2.260;2022-10-16T12:12:59;4.88;;;1.25;;
44670;SDS011;48397;53.016;-2.260;2022-10-16T12:18:21;3.85;;;1.00;;
44670;SDS011;48397;53.016;-2.260;2022-10-16T12:20:56;3.67;;;1.00;;
44670;SDS011;48397;53.016;-2.260;2022-10-16T12:23:39;5.20;;;0.93;;
44670;SDS011;48397;53.016;-2.260;2022-10-16T12:26:23;6.47;;;1.20;;
44670;SDS011;48397;53.016;-2.260;2022-10-16T12:28:53;4.88;;;1.10;;
44670;SDS011;48397;53.016;-2.260;2022-10-16T12:31:22;4.85;;;1.02;;
44670;SDS011;48397;53.016;-2.260;2022-10-16T12:34:01;3.03;;;0.90;;
44670;SDS011;48397;53.016;-2.260;2022-10-16T12:36:30;6.18;;;1.30;;
44670;SDS011;48397;53.016;-2.260;2022-10-16T12:39:00;7.53;;;1.17;;
44670;SDS011;48397;53.016;-2.260;2022-10-16T12:41:30;4.07;;;0.80;;
44670;SDS011;48397;53.016;-2.260;2022-10-16T12:44:02;5.47;;;1.30;;
44670;SDS011;48397;53.016;-2.260;2022-10-16T12:51:40;4.05;;;0.80;;
44670;SDS011;48397;53.016;-2.260;2022-10-16T12:54:12;4.97;;;0.90;;
44670;SDS011;48397;53.016;-2.260;2022-10-16T13:02:31;8.07;;;1.10;;
44670;SDS011;48397;53.016;-2.260;2022-10-16T13:11:50;6.00;;;1.23;;
44670;SDS011;48397;53.016;-2.260;2022-10-16T13:18:11;4.78;;;0.95;;
44670;SDS011;48397;53.016;-2.260;2022-10-16T13:20:56;3.63;;;1.08;;
44670;SDS011;48397;53.016;-2.260;2022-10-16T13:23:32;7.65;;;1.20;;
44670;SDS011;48397;53.016;-2.260;2022-10-16T13:28:58;7.88;;;1.05;;
44670;SDS011;48397;53.016;-2.260;2022-10-16T13:31:28;7.85;;;0.90;;
44670;SDS011;48397;53.016;-2.260;2022-10-16T13:33:57;5.32;;;0.90;;
44670;SDS011;48397;53.016;-2.260;2022-10-16T13:36:30;7.75;;;1.38;;
44670;SDS011;48397;53.016;-2.260;2022-10-16T13:44:40;4.93;;;0.93;;
44670;SDS011;48397;53.016;-2.260;2022-10-16T13:47:17;2.47;;;0.70;;
44670;SDS011;48397;53.016;-2.260;2022-10-16T13:50:00;2.27;;;1.03;;
44670;SDS011;48397;53.016;-2.260;2022-10-16T13:52:29;2.78;;;0.90;;
44670;SDS011;48397;53.016;-2.260;2022-10-16T13:54:57;3.67;;;0.98;;
44670;SDS011;48397;53.016;-2.260;2022-10-16T13:57:28;3.38;;;1.00;;
44670;SDS011;48397;53.016;-2.260;2022-10-16T13:59:56;8.02;;;1.00;;
44670;SDS011;48397;53.016;-2.260;2022-10-16T14:02:41;4.80;;;1.08;;
44670;SDS011;48397;53.016;-2.260;2022-10-16T14:05:10;5.20;;;0.85;;
44670;SDS011;48397;53.016;-2.260;2022-10-16T14:07:37;3.55;;;1.02;;
44670;SDS011;48397;53.016;-2.260;2022-10-16T14:10:06;5.07;;;1.00;;
44670;SDS011;48397;53.016;-2.260;2022-10-16T14:12:53;2.38;;;0.80;;
44670;SDS011;48397;53.016;-2.260;2022-10-16T14:15:26;5.22;;;0.70;;
44670;SDS011;48397;53.016;-2.260;2022-10-16T14:17:54;6.63;;;0.90;;
44670;SDS011;48397;53.016;-2.260;2022-10-16T14:20:24;4.60;;;0.90;;
44670;SDS011;48397;53.016;-2.260;2022-10-16T14:23:04;5.13;;;0.88;;
44670;SDS011;48397;53.016;-2.260;2022-10-16T14:25:46;5.80;;;1.00;;
44670;SDS011;48397;53.016;-2.260;2022-10-16T14:28:18;6.20;;;1.05;;
44670;SDS011;48397;53.016;-2.260;2022-10-16T14:30:57;3.97;;;1.08;;
44670;SDS011;48397;53.016;-2.260;2022-10-16T14:38:41;3.90;;;1.50;;
44670;SDS011;48397;53.016;-2.260;2022-10-16T14:41:15;4.13;;;0.90;;
44670;SDS011;48397;53.016;-2.260;2022-10-16T14:43:49;6.25;;;0.90;;
44670;SDS011;48397;53.016;-2.260;2022-10-16T14:46:19;3.20;;;1.20;;
44670;SDS011;48397;53.016;-2.260;2022-10-16T14:48:54;5.90;;;1.58;;
44670;SDS011;48397;53.016;-2.260;2022-10-16T14:51:46;7.10;;;1.30;;
44670;SDS011;48397;53.016;-2.260;2022-10-16T14:54:15;4.82;;;1.38;;
44670;SDS011;48397;53.016;-2.260;2022-10-16T14:56:54;3.72;;;1.20;;
44670;SDS011;48397;53.016;-2.260;2022-10-16T14:59:34;4.72;;;1.35;;
44670;SDS011;48397;53.016;-2.260;2022-10-16T15:04:25;6.03;;;1.73;;
44670;SDS011;48397;53.016;-2.260;2022-10-16T15:06:53;6.97;;;1.70;;
44670;SDS011;48397;53.016;-2.260;2022-10-16T15:09:20;11.00;;;1.60;;
44670;SDS011;48397;53.016;-2.260;2022-10-16T15:11:48;4.53;;;1.40;;
44670;SDS011;48397;53.016;-2.260;2022-10-16T15:14:15;5.30;;;1.40;;
44670;SDS011;48397;53.016;-2.260;2022-10-16T15:16:43;5.57;;;1.30;;
44670;SDS011;48397;53.016;-2.260;2022-10-16T15:19:10;9.35;;;1.40;;
44670;SDS011;48397;53.016;-2.260;2022-10-16T15:24:11;4.40;;;1.35;;
44670;SDS011;48397;53.016;-2.260;2022-10-16T15:26:45;4.95;;;1.20;;
44670;SDS011;48397;53.016;-2.260;2022-10-16T15:29:16;6.60;;;1.20;;
44670;SDS011;48397;53.016;-2.260;2022-10-16T15:31:44;7.50;;;1.30;;
44670;SDS011;48397;53.016;-2.260;2022-10-16T15:34:14;4.85;;;1.25;;
44670;SDS011;48397;53.016;-2.260;2022-10-16T15:36:42;4.80;;;1.63;;
44670;SDS011;48397;53.016;-2.260;2022-10-16T15:39:12;4.13;;;1.60;;
44670;SDS011;48397;53.016;-2.260;2022-10-16T15:41:45;5.50;;;1.80;;
44670;SDS011;48397;53.016;-2.260;2022-10-16T15:44:17;4.75;;;1.45;;
44670;SDS011;48397;53.016;-2.260;2022-10-16T15:49:13;7.65;;;2.70;;
44670;SDS011;48397;53.016;-2.260;2022-10-16T15:51:42;5.20;;;2.05;;
44670;SDS011;48397;53.016;-2.260;2022-10-16T15:54:10;8.02;;;3.15;;
44670;SDS011;48397;53.016;-2.260;2022-10-16T15:56:38;5.50;;;2.15;;
44670;SDS011;48397;53.016;-2.260;2022-10-16T15:59:05;10.05;;;2.38;;
44670;SDS011;48397;53.016;-2.260;2022-10-16T16:01:34;6.95;;;2.17;;
44670;SDS011;48397;53.016;-2.260;2022-10-16T16:04:02;5.40;;;1.77;;
44670;SDS011;48397;53.016;-2.260;2022-10-16T16:06:46;8.13;;;1.67;;
44670;SDS011;48397;53.016;-2.260;2022-10-16T16:09:14;5.25;;;1.80;;
44670;SDS011;48397;53.016;-2.260;2022-10-16T16:11:42;8.45;;;2.10;;
44670;SDS011;48397;53.016;-2.260;2022-10-16T16:14:11;7.32;;;1.92;;
44670;SDS011;48397;53.016;-2.260;2022-10-16T16:16:40;5.35;;;1.70;;
44670;SDS011;48397;53.016;-2.260;2022-10-16T16:19:08;7.88;;;1.83;;
44670;SDS011;48397;53.016;-2.260;2022-10-16T16:21:38;8.05;;;1.98;;
44670;SDS011;48397;53.016;-2.260;2022-10-16T16:26:35;3.65;;;1.52;;
44670;SDS011;48397;53.016;-2.260;2022-10-16T16:29:04;5.28;;;1.80;;
44670;SDS011;48397;53.016;-2.260;2022-10-16T16:34:01;6.38;;;1.92;;
44670;SDS011;48397;53.016;-2.260;2022-10-16T16:36:30;5.80;;;2.70;;
44670;SDS011;48397;53.016;-2.260;2022-10-16T16:41:27;9.55;;;2.88;;
44670;SDS011;48397;53.016;-2.260;2022-10-16T16:44:04;7.13;;;2.60;;
44670;SDS011;48397;53.016;-2.260;2022-10-16T16:46:33;12.27;;;3.03;;
44670;SDS011;48397;53.016;-2.260;2022-10-16T16:51:30;4.72;;;2.38;;
44670;SDS011;48397;53.016;-2.260;2022-10-16T16:54:04;7.95;;;2.60;;
44670;SDS011;48397;53.016;-2.260;2022-10-16T16:56:34;7.32;;;2.58;;
44670;SDS011;48397;53.016;-2.260;2022-10-16T16:59:02;9.88;;;3.00;;
44670;SDS011;48397;53.016;-2.260;2022-10-16T17:01:30;7.38;;;2.90;;
44670;SDS011;48397;53.016;-2.260;2022-10-16T17:03:58;6.47;;;2.50;;
44670;SDS011;48397;53.016;-2.260;2022-10-16T17:06:27;8.15;;;2.47;;
44670;SDS011;48397;53.016;-2.260;2022-10-16T17:08:58;8.93;;;2.50;;
44670;SDS011;48397;53.016;-2.260;2022-10-16T17:11:37;5.53;;;2.10;;
44670;SDS011;48397;53.016;-2.260;2022-10-16T17:14:18;6.55;;;2.95;;
44670;SDS011;48397;53.016;-2.260;2022-10-16T17:16:46;8.90;;;2.28;;
44670;SDS011;48397;53.016;-2.260;2022-10-16T17:19:16;7.45;;;2.60;;
44670;SDS011;48397;53.016;-2.260;2022-10-16T17:21:51;6.35;;;1.98;;
44670;SDS011;48397;53.016;-2.260;2022-10-16T17:24:19;8.73;;;2.92;;
44670;SDS011;48397;53.016;-2.260;2022-10-16T17:26:47;5.82;;;2.05;;
44670;SDS011;48397;53.016;-2.260;2022-10-16T17:29:16;7.05;;;2.00;;
44670;SDS011;48397;53.016;-2.260;2022-10-16T17:31:44;12.90;;;2.80;;
44670;SDS011;48397;53.016;-2.260;2022-10-16T17:34:12;9.95;;;2.20;;
44670;SDS011;48397;53.016;-2.260;2022-10-16T17:36:40;5.78;;;2.10;;
44670;SDS011;48397;53.016;-2.260;2022-10-16T17:39:11;12.95;;;2.38;;
44670;SDS011;48397;53.016;-2.260;2022-10-16T17:41:40;7.60;;;2.22;;
44670;SDS011;48397;53.016;-2.260;2022-10-16T17:44:07;6.40;;;2.30;;
44670;SDS011;48397;53.016;-2.260;2022-10-16T17:46:36;10.18;;;3.22;;
44670;SDS011;48397;53.016;-2.260;2022-10-16T17:49:08;9.75;;;3.03;;
44670;SDS011;48397;53.016;-2.260;2022-10-16T17:51:37;7.88;;;2.50;;